createdAt,value
2023-08-07T00:01:29.710Z,100.00
2023-08-07T00:06:31.385Z,100.00
2023-08-07T00:11:33.807Z,100.00
2023-08-07T00:16:36.184Z,100.00
2023-08-07T00:21:38.989Z,100.00
2023-08-07T00:26:40.668Z,100.00
2023-08-07T00:31:42.539Z,100.00
2023-08-07T00:36:44.739Z,100.00
2023-08-07T00:41:46.466Z,100.00
2023-08-07T00:46:48.376Z,100.00
2023-08-07T00:51:50.187Z,100.00
2023-08-07T00:56:52.073Z,100.00
2023-08-07T01:01:53.896Z,100.00
2023-08-07T01:06:55.825Z,100.00
2023-08-07T01:11:57.594Z,100.00
2023-08-07T01:17:09.324Z,100.00
2023-08-07T01:22:18.519Z,100.00
2023-08-07T01:27:20.449Z,100.00
2023-08-07T01:32:34.953Z,100.00
2023-08-07T01:37:41.772Z,100.00
2023-08-07T01:42:45.390Z,100.00
2023-08-07T01:47:47.150Z,100.00
2023-08-07T01:52:49.629Z,100.00
2023-08-07T01:57:52.780Z,100.00
2023-08-07T02:02:54.726Z,100.00
2023-08-07T02:07:57.990Z,100.00
2023-08-07T02:13:02.760Z,100.00
2023-08-07T02:18:04.708Z,100.00
2023-08-07T02:23:06.688Z,100.00
2023-08-07T02:28:08.422Z,100.00
2023-08-07T02:33:10.136Z,100.00
2023-08-07T02:38:11.814Z,100.00
2023-08-07T02:43:13.518Z,100.00
2023-08-07T02:48:15.591Z,100.00
2023-08-07T02:53:17.343Z,100.00
2023-08-07T02:58:19.013Z,100.00
2023-08-07T03:03:21.045Z,100.00
2023-08-07T03:08:22.805Z,100.00
2023-08-07T03:13:25.565Z,100.00
2023-08-07T03:18:28.191Z,100.00
2023-08-07T03:23:30.328Z,100.00
2023-08-07T03:28:35.335Z,100.00
2023-08-07T03:33:37.428Z,100.00
2023-08-07T03:38:40.086Z,100.00
2023-08-07T03:43:42.003Z,100.00
2023-08-07T03:48:43.820Z,100.00
2023-08-07T03:53:46.109Z,100.00
2023-08-07T03:58:48.028Z,100.00
2023-08-07T04:03:49.878Z,100.00
2023-08-07T04:08:51.640Z,100.00
2023-08-07T04:13:53.452Z,100.00
2023-08-07T04:18:55.196Z,100.00
2023-08-07T04:23:56.932Z,100.00
2023-08-07T04:28:59.611Z,100.00
2023-08-07T04:34:01.378Z,100.00
2023-08-07T04:39:03.278Z,100.00
2023-08-07T04:44:05.173Z,100.00
2023-08-07T04:49:07.271Z,100.00
2023-08-07T04:54:10.056Z,100.00
2023-08-07T04:59:12.362Z,100.00
2023-08-07T05:04:14.068Z,100.00
2023-08-07T05:09:15.761Z,100.00
2023-08-07T05:14:17.444Z,100.00
2023-08-07T05:19:19.218Z,100.00
2023-08-07T05:24:21.004Z,100.00
2023-08-07T05:29:22.742Z,100.00
2023-08-07T05:34:24.469Z,100.00
2023-08-07T05:39:26.153Z,100.00
2023-08-07T05:44:27.879Z,100.00
2023-08-07T05:49:29.578Z,100.00
2023-08-07T05:54:31.272Z,100.00
2023-08-07T05:59:41.235Z,100.00
2023-08-07T06:04:43.008Z,100.00
2023-08-07T06:09:44.732Z,100.00
2023-08-07T06:14:46.422Z,100.00
2023-08-07T06:19:48.246Z,100.00
2023-08-07T06:24:50.034Z,100.00
2023-08-07T06:29:51.787Z,100.00
2023-08-07T06:34:54.008Z,100.00
2023-08-07T06:39:55.700Z,100.00
2023-08-07T06:45:00.559Z,100.00
2023-08-07T06:50:05.194Z,100.00
2023-08-07T06:55:07.930Z,100.00
2023-08-07T07:00:12.080Z,100.00
2023-08-07T07:05:14.387Z,100.00
2023-08-07T07:10:16.154Z,100.00
2023-08-07T07:15:18.019Z,100.00
2023-08-07T07:20:19.997Z,100.00
2023-08-07T07:25:21.728Z,100.00
2023-08-07T07:30:23.487Z,100.00
2023-08-07T07:35:25.458Z,99.15
2023-08-07T07:40:27.199Z,97.08
2023-08-07T07:45:29.123Z,93.11
2023-08-07T07:50:31.013Z,91.38
2023-08-07T07:55:33.285Z,93.42
2023-08-07T08:00:35.006Z,92.07
2023-08-07T08:05:36.733Z,93.37
2023-08-07T08:10:38.427Z,91.23
2023-08-07T08:15:40.251Z,88.73
2023-08-07T08:20:42.038Z,88.12
2023-08-07T08:25:43.803Z,86.23
2023-08-07T08:30:45.575Z,86.07
2023-08-07T08:35:47.350Z,83.76
2023-08-07T08:40:52.919Z,84.63
2023-08-07T08:45:54.771Z,86.09
2023-08-07T08:50:56.867Z,83.86
2023-08-07T08:55:58.615Z,81.23
2023-08-07T09:01:00.423Z,80.69
2023-08-07T09:06:02.472Z,84.77
2023-08-07T09:11:05.621Z,84.44
2023-08-07T09:16:09.968Z,83.54
2023-08-07T09:21:11.994Z,80.79
2023-08-07T09:26:13.960Z,74.56
2023-08-07T09:31:21.267Z,76.98
2023-08-07T09:36:24.817Z,75.14
2023-08-07T09:41:26.717Z,74.01
2023-08-07T09:46:28.515Z,72.35
2023-08-07T09:51:43.172Z,74.44
2023-08-07T09:56:45.093Z,73.65
2023-08-07T10:01:47.311Z,73.65
2023-08-07T10:06:49.374Z,75.36
2023-08-07T10:11:51.600Z,75.56
2023-08-07T10:16:54.728Z,75.31
2023-08-07T10:21:56.861Z,76.75
2023-08-07T10:26:59.854Z,82.30
2023-08-07T10:32:03.081Z,97.48
2023-08-07T10:37:09.006Z,97.24
2023-08-07T10:42:12.985Z,100.00
2023-08-07T10:47:14.799Z,100.00
2023-08-07T10:52:16.495Z,99.41
2023-08-07T10:57:19.738Z,100.00
2023-08-07T11:02:27.171Z,93.12
2023-08-07T11:07:30.984Z,91.41
2023-08-07T11:12:32.717Z,84.62
2023-08-07T11:17:34.490Z,82.84
2023-08-07T11:22:36.179Z,77.45
2023-08-07T11:27:37.897Z,74.42
2023-08-07T11:32:39.734Z,73.86
2023-08-07T11:37:48.981Z,75.36
2023-08-07T11:42:50.686Z,74.63
2023-08-07T11:47:52.508Z,79.72
2023-08-07T11:52:54.430Z,84.50
2023-08-07T11:57:56.574Z,85.80
2023-08-07T12:02:58.313Z,96.49
2023-08-07T12:08:00.100Z,100.00
2023-08-07T12:13:05.898Z,83.55
2023-08-07T12:18:09.016Z,82.32
2023-08-07T12:23:17.472Z,79.90
2023-08-07T12:28:19.954Z,80.19
2023-08-07T12:33:21.681Z,78.39
2023-08-07T12:38:23.488Z,83.58
2023-08-07T12:43:25.812Z,81.64
2023-08-07T12:48:29.467Z,86.14
2023-08-07T12:53:32.971Z,91.19
2023-08-07T12:58:35.274Z,80.22
2023-08-07T13:03:38.247Z,88.13
2023-08-07T13:08:40.060Z,89.70
2023-08-07T13:13:42.657Z,97.39
2023-08-07T13:18:44.524Z,89.02
2023-08-07T13:23:46.222Z,85.20
2023-08-07T13:28:47.919Z,76.51
2023-08-07T13:33:49.598Z,79.61
2023-08-07T13:38:52.928Z,77.32
2023-08-07T13:43:54.925Z,79.06
2023-08-07T13:48:56.747Z,80.20
2023-08-07T13:53:58.566Z,82.44
2023-08-07T13:59:01.326Z,87.21
2023-08-07T14:04:03.923Z,88.13
2023-08-07T14:09:05.811Z,100.00
2023-08-07T14:14:07.566Z,100.00
2023-08-07T14:19:09.683Z,100.00
2023-08-07T14:24:11.517Z,100.00
2023-08-07T14:29:14.456Z,100.00
2023-08-07T14:34:16.228Z,100.00
2023-08-07T14:39:18.219Z,100.00
2023-08-07T14:44:20.023Z,100.00
2023-08-07T14:49:21.906Z,100.00
2023-08-07T14:54:24.853Z,100.00
2023-08-07T14:59:26.895Z,97.51
2023-08-07T15:04:28.941Z,99.54
2023-08-07T15:09:30.773Z,99.81
2023-08-07T15:14:32.511Z,100.00
2023-08-07T15:19:34.431Z,100.00
2023-08-07T15:24:36.476Z,100.00
2023-08-07T15:29:42.013Z,100.00
2023-08-07T15:34:43.852Z,100.00
2023-08-07T15:39:45.690Z,100.00
2023-08-07T15:44:47.791Z,100.00
2023-08-07T15:49:49.669Z,100.00
2023-08-07T15:54:51.377Z,100.00
2023-08-07T15:59:53.229Z,100.00
2023-08-07T16:04:54.934Z,100.00
2023-08-07T16:09:57.162Z,100.00
2023-08-07T16:15:00.197Z,100.00
2023-08-07T16:20:01.996Z,100.00
2023-08-07T16:25:05.210Z,100.00
2023-08-07T16:30:08.238Z,100.00
2023-08-07T16:35:10.327Z,100.00
2023-08-07T16:40:12.735Z,100.00
2023-08-07T16:45:14.481Z,100.00
2023-08-07T16:50:16.371Z,100.00
2023-08-07T16:55:18.228Z,100.00
2023-08-07T17:00:20.180Z,100.00
2023-08-07T17:05:23.395Z,100.00
2023-08-07T17:10:25.321Z,100.00
2023-08-07T17:15:27.294Z,100.00
2023-08-07T17:20:29.161Z,100.00
2023-08-07T17:25:30.969Z,100.00
2023-08-07T17:30:32.703Z,100.00
2023-08-07T17:35:35.580Z,100.00
2023-08-07T17:40:37.434Z,100.00
2023-08-07T17:45:39.181Z,100.00
2023-08-07T17:50:41.038Z,100.00
2023-08-07T17:55:44.129Z,100.00
2023-08-07T18:00:46.062Z,100.00
2023-08-07T18:05:47.879Z,100.00
2023-08-07T18:10:50.129Z,100.00
2023-08-07T18:15:52.224Z,100.00
2023-08-07T18:20:54.791Z,100.00
2023-08-07T18:25:57.291Z,100.00
2023-08-07T18:30:59.738Z,100.00
2023-08-07T18:36:02.156Z,100.00
2023-08-07T18:41:07.121Z,100.00
2023-08-07T18:46:09.222Z,100.00
2023-08-07T18:51:12.173Z,100.00
2023-08-07T18:56:15.157Z,100.00
2023-08-07T19:01:18.402Z,100.00
2023-08-07T19:06:20.960Z,100.00
2023-08-07T19:11:23.140Z,100.00
2023-08-07T19:16:25.232Z,100.00
2023-08-07T19:21:27.447Z,100.00
2023-08-07T19:26:29.673Z,100.00
2023-08-07T19:31:31.956Z,100.00
2023-08-07T19:36:33.940Z,100.00
2023-08-07T19:41:37.355Z,100.00
2023-08-07T19:46:39.365Z,100.00
2023-08-07T19:51:41.523Z,100.00
2023-08-07T19:56:43.747Z,100.00
2023-08-07T20:01:45.955Z,100.00
2023-08-07T20:06:47.775Z,100.00
2023-08-07T20:11:49.672Z,99.13
2023-08-07T20:16:51.856Z,100.00
2023-08-07T20:22:00.046Z,99.21
2023-08-07T20:27:02.194Z,95.81
2023-08-07T20:32:04.698Z,97.69
2023-08-07T20:37:22.828Z,95.67
2023-08-07T20:42:26.738Z,93.15
2023-08-07T20:47:28.686Z,92.42
2023-08-07T20:52:30.437Z,87.55
2023-08-07T20:57:32.127Z,87.12
2023-08-07T21:02:34.118Z,88.41
2023-08-07T21:07:35.773Z,87.23
2023-08-07T21:12:37.529Z,85.83
2023-08-07T21:17:39.209Z,84.66
2023-08-07T21:22:40.977Z,87.33
2023-08-07T21:27:44.719Z,87.96
2023-08-07T21:32:47.001Z,89.41
2023-08-07T21:37:48.739Z,92.04
2023-08-07T21:42:50.432Z,93.08
2023-08-07T21:47:52.236Z,95.16
2023-08-07T21:52:53.952Z,94.70
2023-08-07T21:57:55.677Z,95.71
2023-08-07T22:02:57.430Z,96.55
2023-08-07T22:08:01.690Z,96.87
2023-08-07T22:13:03.465Z,96.73
2023-08-07T22:18:05.447Z,93.18
2023-08-07T22:23:07.154Z,91.84
2023-08-07T22:28:09.792Z,92.55
2023-08-07T22:33:11.562Z,93.02
2023-08-07T22:38:13.302Z,92.02
2023-08-07T22:43:15.184Z,92.98
2023-08-07T22:48:17.294Z,92.99
2023-08-07T22:53:19.031Z,92.34
2023-08-07T22:58:20.732Z,93.10
2023-08-07T23:03:22.545Z,93.24
2023-08-07T23:08:24.307Z,93.54
2023-08-07T23:13:25.931Z,95.38
2023-08-07T23:18:27.697Z,96.02
2023-08-07T23:23:29.491Z,97.83
2023-08-07T23:28:31.172Z,97.30
2023-08-07T23:33:32.929Z,97.15
2023-08-07T23:38:34.667Z,97.11
2023-08-07T23:43:36.458Z,97.28
2023-08-07T23:48:39.921Z,96.70
2023-08-07T23:53:41.548Z,95.54
2023-08-07T23:58:43.273Z,97.22
